sensor_id;sensor_type;location;lat;lon;timestamp;temperature;humidity
22224;DHT22;11281;52.194;21.006;2023-04-25T00:00:08;8.80;99.90
22224;DHT22;11281;52.194;21.006;2023-04-25T00:04:10;8.80;99.90
22224;DHT22;11281;52.194;21.006;2023-04-25T00:08:12;8.80;99.90
22224;DHT22;11281;52.194;21.006;2023-04-25T00:12:14;8.80;99.90
22224;DHT22;11281;52.194;21.006;2023-04-25T00:16:16;8.90;99.90
22224;DHT22;11281;52.194;21.006;2023-04-25T00:20:18;8.80;99.90
22224;DHT22;11281;52.194;21.006;2023-04-25T00:24:20;8.70;99.90
22224;DHT22;11281;52.194;21.006;2023-04-25T00:28:22;8.50;99.90
22224;DHT22;11281;52.194;21.006;2023-04-25T00:32:24;8.40;99.90
22224;DHT22;11281;52.194;21.006;2023-04-25T00:36:26;8.20;99.90
22224;DHT22;11281;52.194;21.006;2023-04-25T00:40:28;8.10;99.90
22224;DHT22;11281;52.194;21.006;2023-04-25T00:44:31;8.30;99.90
22224;DHT22;11281;52.194;21.006;2023-04-25T00:48:34;8.00;99.90
22224;DHT22;11281;52.194;21.006;2023-04-25T00:52:38;8.10;99.90
22224;DHT22;11281;52.194;21.006;2023-04-25T00:56:42;8.20;99.90
22224;DHT22;11281;52.194;21.006;2023-04-25T01:00:45;8.40;99.90
22224;DHT22;11281;52.194;21.006;2023-04-25T01:04:48;8.70;99.90
22224;DHT22;11281;52.194;21.006;2023-04-25T01:08:49;8.50;99.90
22224;DHT22;11281;52.194;21.006;2023-04-25T01:12:52;8.50;99.90
22224;DHT22;11281;52.194;21.006;2023-04-25T01:16:54;8.40;99.90
22224;DHT22;11281;52.194;21.006;2023-04-25T01:20:55;8.50;99.90
22224;DHT22;11281;52.194;21.006;2023-04-25T01:25:10;8.50;99.90
22224;DHT22;11281;52.194;21.006;2023-04-25T01:29:12;8.60;99.90
22224;DHT22;11281;52.194;21.006;2023-04-25T01:33:15;8.50;99.90
22224;DHT22;11281;52.194;21.006;2023-04-25T01:37:17;8.80;99.90
22224;DHT22;11281;52.194;21.006;2023-04-25T01:41:19;8.80;99.90
22224;DHT22;11281;52.194;21.006;2023-04-25T01:45:21;8.80;99.90
22224;DHT22;11281;52.194;21.006;2023-04-25T01:49:23;8.70;99.90
22224;DHT22;11281;52.194;21.006;2023-04-25T01:53:24;8.70;99.90
22224;DHT22;11281;52.194;21.006;2023-04-25T01:57:26;8.70;99.90
22224;DHT22;11281;52.194;21.006;2023-04-25T02:01:28;8.60;99.90
22224;DHT22;11281;52.194;21.006;2023-04-25T02:05:37;8.60;99.90
22224;DHT22;11281;52.194;21.006;2023-04-25T02:09:39;8.60;99.90
22224;DHT22;11281;52.194;21.006;2023-04-25T02:13:40;8.50;99.90
22224;DHT22;11281;52.194;21.006;2023-04-25T02:17:42;8.40;99.90
22224;DHT22;11281;52.194;21.006;2023-04-25T02:21:43;8.40;99.90
22224;DHT22;11281;52.194;21.006;2023-04-25T02:25:45;8.30;99.90
22224;DHT22;11281;52.194;21.006;2023-04-25T02:29:47;8.30;99.90
22224;DHT22;11281;52.194;21.006;2023-04-25T02:33:49;8.40;99.90
22224;DHT22;11281;52.194;21.006;2023-04-25T02:37:50;8.30;99.90
22224;DHT22;11281;52.194;21.006;2023-04-25T02:41:52;8.20;99.90
22224;DHT22;11281;52.194;21.006;2023-04-25T02:45:54;8.30;99.90
22224;DHT22;11281;52.194;21.006;2023-04-25T02:49:56;8.50;99.90
22224;DHT22;11281;52.194;21.006;2023-04-25T02:53:58;8.60;99.90
22224;DHT22;11281;52.194;21.006;2023-04-25T02:58:00;8.60;99.90
22224;DHT22;11281;52.194;21.006;2023-04-25T03:02:01;8.70;99.90
22224;DHT22;11281;52.194;21.006;2023-04-25T03:06:03;8.70;99.90
22224;DHT22;11281;52.194;21.006;2023-04-25T03:10:08;8.80;99.90
22224;DHT22;11281;52.194;21.006;2023-04-25T03:14:10;8.80;99.90
22224;DHT22;11281;52.194;21.006;2023-04-25T03:18:13;8.90;99.90
22224;DHT22;11281;52.194;21.006;2023-04-25T03:22:14;9.10;99.90
22224;DHT22;11281;52.194;21.006;2023-04-25T03:26:17;9.20;99.90
22224;DHT22;11281;52.194;21.006;2023-04-25T03:30:20;9.20;99.90
22224;DHT22;11281;52.194;21.006;2023-04-25T03:34:22;9.40;99.90
22224;DHT22;11281;52.194;21.006;2023-04-25T03:38:24;9.40;99.90
22224;DHT22;11281;52.194;21.006;2023-04-25T03:42:26;9.50;99.90
22224;DHT22;11281;52.194;21.006;2023-04-25T03:46:28;9.50;99.90
22224;DHT22;11281;52.194;21.006;2023-04-25T03:50:29;9.60;99.90
22224;DHT22;11281;52.194;21.006;2023-04-25T03:54:31;9.70;99.90
22224;DHT22;11281;52.194;21.006;2023-04-25T03:58:32;9.90;99.90
22224;DHT22;11281;52.194;21.006;2023-04-25T04:02:34;10.00;99.90
22224;DHT22;11281;52.194;21.006;2023-04-25T04:06:37;10.10;99.90
22224;DHT22;11281;52.194;21.006;2023-04-25T04:10:39;10.20;99.90
22224;DHT22;11281;52.194;21.006;2023-04-25T04:14:41;10.40;99.90
22224;DHT22;11281;52.194;21.006;2023-04-25T04:18:42;10.40;99.90
22224;DHT22;11281;52.194;21.006;2023-04-25T04:22:44;10.40;99.90
22224;DHT22;11281;52.194;21.006;2023-04-25T04:26:45;10.40;99.90
22224;DHT22;11281;52.194;21.006;2023-04-25T04:30:47;10.60;99.90
22224;DHT22;11281;52.194;21.006;2023-04-25T04:34:52;10.60;99.90
22224;DHT22;11281;52.194;21.006;2023-04-25T04:38:56;10.70;99.90
22224;DHT22;11281;52.194;21.006;2023-04-25T04:42:58;10.80;99.90
22224;DHT22;11281;52.194;21.006;2023-04-25T04:47:00;10.90;99.90
22224;DHT22;11281;52.194;21.006;2023-04-25T04:51:04;10.90;99.90
22224;DHT22;11281;52.194;21.006;2023-04-25T04:55:06;11.00;99.90
22224;DHT22;11281;52.194;21.006;2023-04-25T04:59:08;11.10;99.90
22224;DHT22;11281;52.194;21.006;2023-04-25T05:03:10;11.10;99.90
22224;DHT22;11281;52.194;21.006;2023-04-25T05:07:12;11.10;99.90
22224;DHT22;11281;52.194;21.006;2023-04-25T05:11:14;11.10;99.90
22224;DHT22;11281;52.194;21.006;2023-04-25T05:15:16;11.10;99.90
22224;DHT22;11281;52.194;21.006;2023-04-25T05:19:17;11.30;99.90
22224;DHT22;11281;52.194;21.006;2023-04-25T05:23:19;11.30;99.90
22224;DHT22;11281;52.194;21.006;2023-04-25T05:27:21;11.30;99.90
22224;DHT22;11281;52.194;21.006;2023-04-25T05:31:23;11.20;99.90
22224;DHT22;11281;52.194;21.006;2023-04-25T05:35:25;11.30;99.90
22224;DHT22;11281;52.194;21.006;2023-04-25T05:39:27;11.20;99.90
22224;DHT22;11281;52.194;21.006;2023-04-25T05:43:28;11.10;99.90
22224;DHT22;11281;52.194;21.006;2023-04-25T05:47:31;11.20;99.90
22224;DHT22;11281;52.194;21.006;2023-04-25T05:51:32;11.20;99.90
22224;DHT22;11281;52.194;21.006;2023-04-25T05:55:34;11.10;99.90
22224;DHT22;11281;52.194;21.006;2023-04-25T05:59:36;11.00;99.90
22224;DHT22;11281;52.194;21.006;2023-04-25T06:03:38;11.00;99.90
22224;DHT22;11281;52.194;21.006;2023-04-25T06:07:40;10.90;99.90
22224;DHT22;11281;52.194;21.006;2023-04-25T06:11:42;10.90;99.90
22224;DHT22;11281;52.194;21.006;2023-04-25T06:15:43;10.80;99.90
22224;DHT22;11281;52.194;21.006;2023-04-25T06:19:45;10.90;99.90
22224;DHT22;11281;52.194;21.006;2023-04-25T06:23:47;10.80;99.90
22224;DHT22;11281;52.194;21.006;2023-04-25T06:27:49;10.70;99.90
22224;DHT22;11281;52.194;21.006;2023-04-25T06:31:50;10.60;99.90
22224;DHT22;11281;52.194;21.006;2023-04-25T06:35:52;10.70;99.90
22224;DHT22;11281;52.194;21.006;2023-04-25T06:39:54;10.70;99.90
22224;DHT22;11281;52.194;21.006;2023-04-25T06:43:56;10.70;99.90
22224;DHT22;11281;52.194;21.006;2023-04-25T06:47:57;10.90;99.90
22224;DHT22;11281;52.194;21.006;2023-04-25T06:51:59;11.00;99.90
22224;DHT22;11281;52.194;21.006;2023-04-25T06:56:01;10.90;99.90
22224;DHT22;11281;52.194;21.006;2023-04-25T07:00:04;11.00;99.90
22224;DHT22;11281;52.194;21.006;2023-04-25T07:04:09;10.90;99.90
22224;DHT22;11281;52.194;21.006;2023-04-25T07:08:11;10.60;99.90
22224;DHT22;11281;52.194;21.006;2023-04-25T07:12:13;10.50;99.90
22224;DHT22;11281;52.194;21.006;2023-04-25T07:16:16;10.30;99.90
22224;DHT22;11281;52.194;21.006;2023-04-25T07:20:17;10.30;99.90
22224;DHT22;11281;52.194;21.006;2023-04-25T07:24:19;10.10;99.90
22224;DHT22;11281;52.194;21.006;2023-04-25T07:28:21;10.20;99.90
22224;DHT22;11281;52.194;21.006;2023-04-25T07:32:23;10.40;99.90
22224;DHT22;11281;52.194;21.006;2023-04-25T07:36:25;10.30;99.90
22224;DHT22;11281;52.194;21.006;2023-04-25T07:40:27;10.30;99.90
22224;DHT22;11281;52.194;21.006;2023-04-25T07:44:29;10.70;99.90
22224;DHT22;11281;52.194;21.006;2023-04-25T07:48:39;10.90;99.90
22224;DHT22;11281;52.194;21.006;2023-04-25T07:52:41;11.30;99.90
22224;DHT22;11281;52.194;21.006;2023-04-25T07:56:42;11.70;99.90
22224;DHT22;11281;52.194;21.006;2023-04-25T08:00:43;12.30;99.90
22224;DHT22;11281;52.194;21.006;2023-04-25T08:04:45;12.40;99.90
22224;DHT22;11281;52.194;21.006;2023-04-25T08:08:48;13.20;99.90
22224;DHT22;11281;52.194;21.006;2023-04-25T08:12:50;12.90;99.90
22224;DHT22;11281;52.194;21.006;2023-04-25T08:16:52;12.60;99.90
22224;DHT22;11281;52.194;21.006;2023-04-25T08:20:54;12.40;99.90
22224;DHT22;11281;52.194;21.006;2023-04-25T08:24:55;11.60;99.90
22224;DHT22;11281;52.194;21.006;2023-04-25T08:28:57;11.50;99.90
22224;DHT22;11281;52.194;21.006;2023-04-25T08:32:59;11.50;99.90
22224;DHT22;11281;52.194;21.006;2023-04-25T08:37:00;11.30;99.90
22224;DHT22;11281;52.194;21.006;2023-04-25T08:41:03;11.40;99.90
22224;DHT22;11281;52.194;21.006;2023-04-25T08:45:06;11.50;99.90
22224;DHT22;11281;52.194;21.006;2023-04-25T08:49:09;11.40;99.90
22224;DHT22;11281;52.194;21.006;2023-04-25T08:53:12;11.40;99.90
22224;DHT22;11281;52.194;21.006;2023-04-25T08:57:19;11.30;99.90
22224;DHT22;11281;52.194;21.006;2023-04-25T09:01:22;11.50;99.90
22224;DHT22;11281;52.194;21.006;2023-04-25T09:05:24;11.60;99.90
22224;DHT22;11281;52.194;21.006;2023-04-25T09:09:26;11.50;99.90
22224;DHT22;11281;52.194;21.006;2023-04-25T09:13:28;11.70;99.90
22224;DHT22;11281;52.194;21.006;2023-04-25T09:17:31;12.10;99.90
22224;DHT22;11281;52.194;21.006;2023-04-25T09:21:34;12.30;99.90
22224;DHT22;11281;52.194;21.006;2023-04-25T09:25:36;12.50;99.90
22224;DHT22;11281;52.194;21.006;2023-04-25T09:29:41;12.60;99.90
22224;DHT22;11281;52.194;21.006;2023-04-25T09:33:43;12.50;99.90
22224;DHT22;11281;52.194;21.006;2023-04-25T09:37:46;12.30;99.90
22224;DHT22;11281;52.194;21.006;2023-04-25T09:41:47;12.10;99.90
22224;DHT22;11281;52.194;21.006;2023-04-25T09:45:55;11.80;99.90
22224;DHT22;11281;52.194;21.006;2023-04-25T09:50:00;11.70;99.90
22224;DHT22;11281;52.194;21.006;2023-04-25T09:54:03;11.10;99.90
22224;DHT22;11281;52.194;21.006;2023-04-25T09:58:05;11.10;99.90
22224;DHT22;11281;52.194;21.006;2023-04-25T10:02:11;11.20;99.90
22224;DHT22;11281;52.194;21.006;2023-04-25T10:06:18;11.00;99.90
22224;DHT22;11281;52.194;21.006;2023-04-25T10:10:21;10.90;99.90
22224;DHT22;11281;52.194;21.006;2023-04-25T10:14:26;10.80;99.90
22224;DHT22;11281;52.194;21.006;2023-04-25T10:18:29;10.90;99.90
22224;DHT22;11281;52.194;21.006;2023-04-25T10:22:41;11.10;99.90
22224;DHT22;11281;52.194;21.006;2023-04-25T10:26:44;11.00;99.90
22224;DHT22;11281;52.194;21.006;2023-04-25T10:31:02;10.70;99.90
22224;DHT22;11281;52.194;21.006;2023-04-25T10:35:14;10.70;99.90
22224;DHT22;11281;52.194;21.006;2023-04-25T10:39:26;10.80;99.90
22224;DHT22;11281;52.194;21.006;2023-04-25T10:47:36;11.00;99.90
22224;DHT22;11281;52.194;21.006;2023-04-25T10:51:38;10.80;99.90
22224;DHT22;11281;52.194;21.006;2023-04-25T10:55:49;10.80;99.90
22224;DHT22;11281;52.194;21.006;2023-04-25T10:59:51;10.80;99.90
22224;DHT22;11281;52.194;21.006;2023-04-25T11:03:57;10.80;99.90
22224;DHT22;11281;52.194;21.006;2023-04-25T11:08:00;10.50;99.90
22224;DHT22;11281;52.194;21.006;2023-04-25T11:12:02;10.50;99.90
22224;DHT22;11281;52.194;21.006;2023-04-25T11:16:06;10.60;99.90
22224;DHT22;11281;52.194;21.006;2023-04-25T11:20:08;10.90;99.90
22224;DHT22;11281;52.194;21.006;2023-04-25T11:24:12;10.80;99.90
22224;DHT22;11281;52.194;21.006;2023-04-25T11:28:21;10.60;99.90
22224;DHT22;11281;52.194;21.006;2023-04-25T11:32:26;10.80;99.90
22224;DHT22;11281;52.194;21.006;2023-04-25T11:36:28;10.80;99.90
22224;DHT22;11281;52.194;21.006;2023-04-25T11:40:30;10.90;99.90
22224;DHT22;11281;52.194;21.006;2023-04-25T11:44:32;11.20;99.90
22224;DHT22;11281;52.194;21.006;2023-04-25T11:48:40;11.10;99.90
22224;DHT22;11281;52.194;21.006;2023-04-25T11:52:45;11.20;99.90
22224;DHT22;11281;52.194;21.006;2023-04-25T11:56:47;11.30;99.90
22224;DHT22;11281;52.194;21.006;2023-04-25T12:00:49;11.30;99.90
22224;DHT22;11281;52.194;21.006;2023-04-25T12:04:50;11.20;99.90
22224;DHT22;11281;52.194;21.006;2023-04-25T12:09:00;11.20;99.90
22224;DHT22;11281;52.194;21.006;2023-04-25T12:13:21;11.40;99.90
22224;DHT22;11281;52.194;21.006;2023-04-25T12:17:23;11.30;99.90
22224;DHT22;11281;52.194;21.006;2023-04-25T12:21:28;11.50;99.90
22224;DHT22;11281;52.194;21.006;2023-04-25T12:25:43;11.40;99.90
22224;DHT22;11281;52.194;21.006;2023-04-25T12:29:56;11.60;99.90
22224;DHT22;11281;52.194;21.006;2023-04-25T12:33:58;11.50;99.90
22224;DHT22;11281;52.194;21.006;2023-04-25T12:38:00;11.10;99.90
22224;DHT22;11281;52.194;21.006;2023-04-25T12:42:03;11.30;99.90
22224;DHT22;11281;52.194;21.006;2023-04-25T12:46:04;11.30;99.90
22224;DHT22;11281;52.194;21.006;2023-04-25T12:50:07;11.00;99.90
22224;DHT22;11281;52.194;21.006;2023-04-25T12:54:10;11.00;99.90
22224;DHT22;11281;52.194;21.006;2023-04-25T12:58:13;11.00;99.90
22224;DHT22;11281;52.194;21.006;2023-04-25T13:02:16;11.00;99.90
22224;DHT22;11281;52.194;21.006;2023-04-25T13:06:18;11.00;99.90
22224;DHT22;11281;52.194;21.006;2023-04-25T13:10:21;11.00;99.90
22224;DHT22;11281;52.194;21.006;2023-04-25T13:14:22;10.90;99.90
22224;DHT22;11281;52.194;21.006;2023-04-25T13:18:24;10.90;99.90
22224;DHT22;11281;52.194;21.006;2023-04-25T13:22:27;11.00;99.90
22224;DHT22;11281;52.194;21.006;2023-04-25T13:26:29;11.00;99.90
22224;DHT22;11281;52.194;21.006;2023-04-25T13:30:31;10.90;99.90
22224;DHT22;11281;52.194;21.006;2023-04-25T13:34:33;11.00;99.90
22224;DHT22;11281;52.194;21.006;2023-04-25T13:38:34;11.00;99.90
22224;DHT22;11281;52.194;21.006;2023-04-25T13:42:37;11.00;99.90
22224;DHT22;11281;52.194;21.006;2023-04-25T13:46:39;11.00;99.90
22224;DHT22;11281;52.194;21.006;2023-04-25T13:50:41;10.80;99.90
22224;DHT22;11281;52.194;21.006;2023-04-25T13:54:43;10.60;99.90
22224;DHT22;11281;52.194;21.006;2023-04-25T13:58:45;10.80;99.90
22224;DHT22;11281;52.194;21.006;2023-04-25T14:02:47;10.80;99.90
22224;DHT22;11281;52.194;21.006;2023-04-25T14:06:49;10.50;99.90
22224;DHT22;11281;52.194;21.006;2023-04-25T14:10:51;10.60;99.90
22224;DHT22;11281;52.194;21.006;2023-04-25T14:14:53;10.60;99.90
22224;DHT22;11281;52.194;21.006;2023-04-25T14:18:55;10.70;99.90
22224;DHT22;11281;52.194;21.006;2023-04-25T14:22:57;10.80;99.90
22224;DHT22;11281;52.194;21.006;2023-04-25T14:26:59;10.90;99.90
22224;DHT22;11281;52.194;21.006;2023-04-25T14:31:02;10.80;99.90
22224;DHT22;11281;52.194;21.006;2023-04-25T14:35:04;10.90;99.90
22224;DHT22;11281;52.194;21.006;2023-04-25T14:39:06;11.10;99.90
22224;DHT22;11281;52.194;21.006;2023-04-25T14:43:08;11.10;99.90
22224;DHT22;11281;52.194;21.006;2023-04-25T14:47:10;11.10;99.90
22224;DHT22;11281;52.194;21.006;2023-04-25T14:51:12;11.10;99.90
22224;DHT22;11281;52.194;21.006;2023-04-25T14:55:14;11.00;99.90
22224;DHT22;11281;52.194;21.006;2023-04-25T14:59:16;10.90;99.90
22224;DHT22;11281;52.194;21.006;2023-04-25T15:03:18;10.90;99.90
22224;DHT22;11281;52.194;21.006;2023-04-25T15:07:20;10.90;99.90
22224;DHT22;11281;52.194;21.006;2023-04-25T15:11:21;11.10;99.90
22224;DHT22;11281;52.194;21.006;2023-04-25T15:15:24;10.90;99.90
22224;DHT22;11281;52.194;21.006;2023-04-25T15:19:26;11.20;99.90
22224;DHT22;11281;52.194;21.006;2023-04-25T15:23:27;11.10;99.90
22224;DHT22;11281;52.194;21.006;2023-04-25T15:27:29;11.30;99.90
22224;DHT22;11281;52.194;21.006;2023-04-25T15:31:31;11.10;99.90
22224;DHT22;11281;52.194;21.006;2023-04-25T15:35:33;11.20;99.90
22224;DHT22;11281;52.194;21.006;2023-04-25T15:39:35;11.00;99.90
22224;DHT22;11281;52.194;21.006;2023-04-25T15:43:37;10.90;99.90
22224;DHT22;11281;52.194;21.006;2023-04-25T15:47:39;10.80;99.90
22224;DHT22;11281;52.194;21.006;2023-04-25T15:51:41;10.80;99.90
22224;DHT22;11281;52.194;21.006;2023-04-25T15:55:42;10.50;99.90
22224;DHT22;11281;52.194;21.006;2023-04-25T15:59:45;10.10;99.90
22224;DHT22;11281;52.194;21.006;2023-04-25T16:03:49;9.90;99.90
22224;DHT22;11281;52.194;21.006;2023-04-25T16:07:51;9.80;99.90
22224;DHT22;11281;52.194;21.006;2023-04-25T16:11:54;9.80;99.90
22224;DHT22;11281;52.194;21.006;2023-04-25T16:15:55;9.70;99.90
22224;DHT22;11281;52.194;21.006;2023-04-25T16:19:58;9.50;99.90
22224;DHT22;11281;52.194;21.006;2023-04-25T16:24:03;9.50;99.90
22224;DHT22;11281;52.194;21.006;2023-04-25T16:28:04;9.40;99.90
22224;DHT22;11281;52.194;21.006;2023-04-25T16:32:06;9.40;99.90
22224;DHT22;11281;52.194;21.006;2023-04-25T16:36:08;9.30;99.90
22224;DHT22;11281;52.194;21.006;2023-04-25T16:40:10;9.20;99.90
22224;DHT22;11281;52.194;21.006;2023-04-25T16:44:13;9.20;99.90
22224;DHT22;11281;52.194;21.006;2023-04-25T16:48:14;9.10;99.90
22224;DHT22;11281;52.194;21.006;2023-04-25T16:52:19;9.10;99.90
22224;DHT22;11281;52.194;21.006;2023-04-25T16:56:24;9.10;99.90
22224;DHT22;11281;52.194;21.006;2023-04-25T17:00:25;9.00;99.90
22224;DHT22;11281;52.194;21.006;2023-04-25T17:04:27;8.90;99.90
22224;DHT22;11281;52.194;21.006;2023-04-25T17:08:29;8.90;99.90
22224;DHT22;11281;52.194;21.006;2023-04-25T17:12:31;8.90;99.90
22224;DHT22;11281;52.194;21.006;2023-04-25T17:16:37;8.90;99.90
22224;DHT22;11281;52.194;21.006;2023-04-25T17:20:39;8.80;99.90
22224;DHT22;11281;52.194;21.006;2023-04-25T17:24:41;8.80;99.90
22224;DHT22;11281;52.194;21.006;2023-04-25T17:28:43;8.80;99.90
22224;DHT22;11281;52.194;21.006;2023-04-25T17:32:49;8.80;99.90
22224;DHT22;11281;52.194;21.006;2023-04-25T17:36:51;8.70;99.90
22224;DHT22;11281;52.194;21.006;2023-04-25T17:40:53;8.60;99.90
22224;DHT22;11281;52.194;21.006;2023-04-25T17:44:55;8.60;99.90
22224;DHT22;11281;52.194;21.006;2023-04-25T17:48:57;8.50;99.90
22224;DHT22;11281;52.194;21.006;2023-04-25T17:52:59;8.50;99.90
22224;DHT22;11281;52.194;21.006;2023-04-25T17:57:03;8.40;99.90
22224;DHT22;11281;52.194;21.006;2023-04-25T18:01:04;8.40;99.90
22224;DHT22;11281;52.194;21.006;2023-04-25T18:05:06;8.40;99.90
22224;DHT22;11281;52.194;21.006;2023-04-25T18:09:11;8.30;99.90
22224;DHT22;11281;52.194;21.006;2023-04-25T18:13:18;8.30;99.90
22224;DHT22;11281;52.194;21.006;2023-04-25T18:17:20;8.30;99.90
22224;DHT22;11281;52.194;21.006;2023-04-25T18:21:25;8.20;99.90
22224;DHT22;11281;52.194;21.006;2023-04-25T18:25:26;8.20;99.90
22224;DHT22;11281;52.194;21.006;2023-04-25T18:29:28;8.10;99.90
22224;DHT22;11281;52.194;21.006;2023-04-25T18:33:30;8.10;99.90
22224;DHT22;11281;52.194;21.006;2023-04-25T18:37:32;8.10;99.90
22224;DHT22;11281;52.194;21.006;2023-04-25T18:41:34;8.10;99.90
22224;DHT22;11281;52.194;21.006;2023-04-25T18:45:37;8.00;99.90
22224;DHT22;11281;52.194;21.006;2023-04-25T18:49:39;8.00;99.90
22224;DHT22;11281;52.194;21.006;2023-04-25T18:53:41;7.90;99.90
22224;DHT22;11281;52.194;21.006;2023-04-25T18:57:43;7.90;99.90
22224;DHT22;11281;52.194;21.006;2023-04-25T19:01:44;7.90;99.90
22224;DHT22;11281;52.194;21.006;2023-04-25T19:05:46;7.90;99.90
22224;DHT22;11281;52.194;21.006;2023-04-25T19:09:47;7.90;99.90
22224;DHT22;11281;52.194;21.006;2023-04-25T19:13:50;7.90;99.90
22224;DHT22;11281;52.194;21.006;2023-04-25T19:17:52;7.90;99.90
22224;DHT22;11281;52.194;21.006;2023-04-25T19:21:53;7.80;99.90
22224;DHT22;11281;52.194;21.006;2023-04-25T19:25:55;7.80;99.90
22224;DHT22;11281;52.194;21.006;2023-04-25T19:29:57;7.80;99.90
22224;DHT22;11281;52.194;21.006;2023-04-25T19:34:08;7.70;99.90
22224;DHT22;11281;52.194;21.006;2023-04-25T19:38:10;7.70;99.90
22224;DHT22;11281;52.194;21.006;2023-04-25T19:42:12;7.70;99.90
22224;DHT22;11281;52.194;21.006;2023-04-25T19:46:13;7.70;99.90
22224;DHT22;11281;52.194;21.006;2023-04-25T19:50:15;7.60;99.90
22224;DHT22;11281;52.194;21.006;2023-04-25T19:54:17;7.60;99.90
22224;DHT22;11281;52.194;21.006;2023-04-25T19:58:19;7.60;99.90
22224;DHT22;11281;52.194;21.006;2023-04-25T20:02:21;7.60;99.90
22224;DHT22;11281;52.194;21.006;2023-04-25T20:06:22;7.60;99.90
22224;DHT22;11281;52.194;21.006;2023-04-25T20:10:24;7.60;99.90
22224;DHT22;11281;52.194;21.006;2023-04-25T20:14:26;7.60;99.90
22224;DHT22;11281;52.194;21.006;2023-04-25T20:18:28;7.50;99.90
22224;DHT22;11281;52.194;21.006;2023-04-25T20:22:30;7.60;99.90
22224;DHT22;11281;52.194;21.006;2023-04-25T20:26:36;7.60;99.90
22224;DHT22;11281;52.194;21.006;2023-04-25T20:30:38;7.50;99.90
22224;DHT22;11281;52.194;21.006;2023-04-25T20:34:40;7.50;99.90
22224;DHT22;11281;52.194;21.006;2023-04-25T20:38:42;7.60;99.90
22224;DHT22;11281;52.194;21.006;2023-04-25T20:42:44;7.60;99.90
22224;DHT22;11281;52.194;21.006;2023-04-25T20:46:46;7.60;99.90
22224;DHT22;11281;52.194;21.006;2023-04-25T20:50:48;7.60;99.90
22224;DHT22;11281;52.194;21.006;2023-04-25T20:54:50;7.60;99.90
22224;DHT22;11281;52.194;21.006;2023-04-25T20:58:53;7.60;99.90
22224;DHT22;11281;52.194;21.006;2023-04-25T21:02:56;7.60;99.90
22224;DHT22;11281;52.194;21.006;2023-04-25T21:06:57;7.70;99.90
22224;DHT22;11281;52.194;21.006;2023-04-25T21:11:01;7.70;99.90
22224;DHT22;11281;52.194;21.006;2023-04-25T21:15:03;7.70;99.90
22224;DHT22;11281;52.194;21.006;2023-04-25T21:19:04;7.70;99.90
22224;DHT22;11281;52.194;21.006;2023-04-25T21:23:07;7.70;99.90
22224;DHT22;11281;52.194;21.006;2023-04-25T21:27:08;7.70;99.90
22224;DHT22;11281;52.194;21.006;2023-04-25T21:31:10;7.70;99.90
22224;DHT22;11281;52.194;21.006;2023-04-25T21:35:12;7.70;99.90
22224;DHT22;11281;52.194;21.006;2023-04-25T21:39:14;7.70;99.90
22224;DHT22;11281;52.194;21.006;2023-04-25T21:43:16;7.70;99.90
22224;DHT22;11281;52.194;21.006;2023-04-25T21:47:18;7.70;99.90
22224;DHT22;11281;52.194;21.006;2023-04-25T21:51:20;7.70;99.90
22224;DHT22;11281;52.194;21.006;2023-04-25T21:55:26;7.70;99.90
22224;DHT22;11281;52.194;21.006;2023-04-25T21:59:28;7.80;99.90
22224;DHT22;11281;52.194;21.006;2023-04-25T22:03:31;7.80;99.90
22224;DHT22;11281;52.194;21.006;2023-04-25T22:07:33;7.80;99.90
22224;DHT22;11281;52.194;21.006;2023-04-25T22:11:35;7.80;99.90
22224;DHT22;11281;52.194;21.006;2023-04-25T22:15:37;7.80;99.90
22224;DHT22;11281;52.194;21.006;2023-04-25T22:19:39;7.80;99.90
22224;DHT22;11281;52.194;21.006;2023-04-25T22:23:40;7.70;99.90
22224;DHT22;11281;52.194;21.006;2023-04-25T22:27:42;7.70;99.90
22224;DHT22;11281;52.194;21.006;2023-04-25T22:31:43;7.70;99.90
22224;DHT22;11281;52.194;21.006;2023-04-25T22:35:45;7.60;99.90
22224;DHT22;11281;52.194;21.006;2023-04-25T22:39:47;7.50;99.90
22224;DHT22;11281;52.194;21.006;2023-04-25T22:43:49;7.50;99.90
22224;DHT22;11281;52.194;21.006;2023-04-25T22:47:51;7.40;99.90
22224;DHT22;11281;52.194;21.006;2023-04-25T22:51:53;7.40;99.90
22224;DHT22;11281;52.194;21.006;2023-04-25T22:55:56;7.20;99.90
22224;DHT22;11281;52.194;21.006;2023-04-25T22:59:58;7.20;99.90
22224;DHT22;11281;52.194;21.006;2023-04-25T23:04:00;7.10;99.90
22224;DHT22;11281;52.194;21.006;2023-04-25T23:08:02;7.10;99.90
22224;DHT22;11281;52.194;21.006;2023-04-25T23:12:03;7.10;99.90
22224;DHT22;11281;52.194;21.006;2023-04-25T23:16:09;7.00;99.90
22224;DHT22;11281;52.194;21.006;2023-04-25T23:20:11;7.00;99.90
22224;DHT22;11281;52.194;21.006;2023-04-25T23:24:13;7.00;99.90
22224;DHT22;11281;52.194;21.006;2023-04-25T23:28:14;7.00;99.90
22224;DHT22;11281;52.194;21.006;2023-04-25T23:32:16;7.00;99.90
22224;DHT22;11281;52.194;21.006;2023-04-25T23:36:18;7.10;99.90
22224;DHT22;11281;52.194;21.006;2023-04-25T23:40:21;7.10;99.90
22224;DHT22;11281;52.194;21.006;2023-04-25T23:44:23;7.00;99.90
22224;DHT22;11281;52.194;21.006;2023-04-25T23:48:24;7.10;99.90
22224;DHT22;11281;52.194;21.006;2023-04-25T23:52:26;7.10;99.90
22224;DHT22;11281;52.194;21.006;2023-04-25T23:56:28;7.10;99.90
